sensor_id;sensor_type;location;lat;lon;timestamp;pressure;altitude;pressure_sealevel;temperature;humidity
54978;BME280;40873;47.522;19.106;2023-10-31T00:01:53;99441.88;;;12.26;100.00
54978;BME280;40873;47.522;19.106;2023-10-31T00:04:22;99438.84;;;12.30;100.00
54978;BME280;40873;47.522;19.106;2023-10-31T00:06:49;99431.03;;;12.29;100.00
54978;BME280;40873;47.522;19.106;2023-10-31T00:09:16;99424.44;;;12.23;100.00
54978;BME280;40873;47.522;19.106;2023-10-31T00:11:43;99429.72;;;12.23;100.00
54978;BME280;40873;47.522;19.106;2023-10-31T00:14:13;99424.44;;;12.23;100.00
54978;BME280;40873;47.522;19.106;2023-10-31T00:17:00;99423.03;;;12.19;100.00
54978;BME280;40873;47.522;19.106;2023-10-31T00:19:27;99430.59;;;12.24;100.00
54978;BME280;40873;47.522;19.106;2023-10-31T00:21:54;99427.50;;;12.19;100.00
54978;BME280;40873;47.522;19.106;2023-10-31T00:24:21;99430.63;;;12.13;100.00
54978;BME280;40873;47.522;19.106;2023-10-31T00:26:48;99424.50;;;12.12;100.00
54978;BME280;40873;47.522;19.106;2023-10-31T00:29:15;99417.88;;;12.18;100.00
54978;BME280;40873;47.522;19.106;2023-10-31T00:31:42;99417.41;;;12.13;100.00
54978;BME280;40873;47.522;19.106;2023-10-31T00:34:09;99414.41;;;12.06;100.00
54978;BME280;40873;47.522;19.106;2023-10-31T00:36:37;99396.03;;;12.04;100.00
54978;BME280;40873;47.522;19.106;2023-10-31T00:39:04;99399.25;;;12.08;100.00
54978;BME280;40873;47.522;19.106;2023-10-31T00:41:32;99389.31;;;12.00;100.00
54978;BME280;40873;47.522;19.106;2023-10-31T00:43:59;99393.06;;;11.98;100.00
54978;BME280;40873;47.522;19.106;2023-10-31T00:46:26;99389.94;;;11.93;100.00
54978;BME280;40873;47.522;19.106;2023-10-31T00:48:53;99393.69;;;11.90;100.00
54978;BME280;40873;47.522;19.106;2023-10-31T00:51:20;99391.28;;;11.87;100.00
54978;BME280;40873;47.522;19.106;2023-10-31T00:53:47;99388.41;;;11.90;100.00
54978;BME280;40873;47.522;19.106;2023-10-31T00:56:14;99384.31;;;11.86;100.00
54978;BME280;40873;47.522;19.106;2023-10-31T00:58:41;99379.88;;;11.87;100.00
54978;BME280;40873;47.522;19.106;2023-10-31T01:01:08;99358.47;;;11.78;100.00
54978;BME280;40873;47.522;19.106;2023-10-31T01:03:38;99358.47;;;11.78;100.00
54978;BME280;40873;47.522;19.106;2023-10-31T01:06:05;99357.16;;;11.73;100.00
54978;BME280;40873;47.522;19.106;2023-10-31T01:08:32;99355.34;;;11.73;100.00
54978;BME280;40873;47.522;19.106;2023-10-31T01:10:59;99355.00;;;11.78;100.00
54978;BME280;40873;47.522;19.106;2023-10-31T01:13:26;99347.06;;;11.78;100.00
54978;BME280;40873;47.522;19.106;2023-10-31T01:15:53;99346.38;;;11.76;100.00
54978;BME280;40873;47.522;19.106;2023-10-31T01:18:20;99341.56;;;11.70;100.00
54978;BME280;40873;47.522;19.106;2023-10-31T01:20:47;99337.25;;;11.69;100.00
54978;BME280;40873;47.522;19.106;2023-10-31T01:23:14;99333.78;;;11.68;100.00
54978;BME280;40873;47.522;19.106;2023-10-31T01:25:42;99328.38;;;11.70;100.00
54978;BME280;40873;47.522;19.106;2023-10-31T01:28:09;99326.78;;;11.67;100.00
54978;BME280;40873;47.522;19.106;2023-10-31T01:30:39;99326.09;;;11.65;100.00
54978;BME280;40873;47.522;19.106;2023-10-31T01:33:09;99321.06;;;11.62;100.00
54978;BME280;40873;47.522;19.106;2023-10-31T01:35:36;99317.44;;;11.63;100.00
54978;BME280;40873;47.522;19.106;2023-10-31T01:38:03;99311.44;;;11.61;100.00
54978;BME280;40873;47.522;19.106;2023-10-31T01:40:30;99307.84;;;11.62;100.00
54978;BME280;40873;47.522;19.106;2023-10-31T01:42:57;99301.34;;;11.66;100.00
54978;BME280;40873;47.522;19.106;2023-10-31T01:45:24;99311.06;;;11.66;100.00
54978;BME280;40873;47.522;19.106;2023-10-31T01:47:51;99306.75;;;11.65;100.00
54978;BME280;40873;47.522;19.106;2023-10-31T01:50:18;99293.53;;;11.65;100.00
54978;BME280;40873;47.522;19.106;2023-10-31T01:52:46;99300.88;;;11.61;100.00
54978;BME280;40873;47.522;19.106;2023-10-31T01:55:14;99295.47;;;11.63;100.00
54978;BME280;40873;47.522;19.106;2023-10-31T01:57:44;99299.53;;;11.67;100.00
54978;BME280;40873;47.522;19.106;2023-10-31T02:00:13;99303.00;;;11.67;100.00
54978;BME280;40873;47.522;19.106;2023-10-31T02:02:40;99293.03;;;11.71;100.00
54978;BME280;40873;47.522;19.106;2023-10-31T02:05:09;99292.06;;;11.72;100.00
54978;BME280;40873;47.522;19.106;2023-10-31T02:07:37;99287.75;;;11.71;100.00
54978;BME280;40873;47.522;19.106;2023-10-31T02:10:04;99289.06;;;11.76;100.00
54978;BME280;40873;47.522;19.106;2023-10-31T02:12:33;99299.50;;;11.78;100.00
54978;BME280;40873;47.522;19.106;2023-10-31T02:15:03;99282.69;;;11.79;100.00
54978;BME280;40873;47.522;19.106;2023-10-31T02:17:30;99282.69;;;11.79;100.00
54978;BME280;40873;47.522;19.106;2023-10-31T02:19:57;99272.38;;;11.76;100.00
54978;BME280;40873;47.522;19.106;2023-10-31T02:22:24;99275.38;;;11.83;100.00
54978;BME280;40873;47.522;19.106;2023-10-31T02:24:51;99270.53;;;11.88;100.00
54978;BME280;40873;47.522;19.106;2023-10-31T02:27:18;99265.53;;;11.85;100.00
54978;BME280;40873;47.522;19.106;2023-10-31T02:29:45;99263.84;;;11.84;100.00
54978;BME280;40873;47.522;19.106;2023-10-31T02:32:12;99256.75;;;11.84;100.00
54978;BME280;40873;47.522;19.106;2023-10-31T02:34:39;99264.69;;;11.84;100.00
54978;BME280;40873;47.522;19.106;2023-10-31T02:37:06;99269.97;;;11.84;100.00
54978;BME280;40873;47.522;19.106;2023-10-31T02:39:34;99269.13;;;11.84;100.00
54978;BME280;40873;47.522;19.106;2023-10-31T02:42:01;99267.19;;;11.86;100.00
54978;BME280;40873;47.522;19.106;2023-10-31T02:44:29;99268.50;;;11.91;100.00
54978;BME280;40873;47.522;19.106;2023-10-31T02:46:56;99268.81;;;11.98;100.00
54978;BME280;40873;47.522;19.106;2023-10-31T02:49:23;99263.53;;;11.98;100.00
54978;BME280;40873;47.522;19.106;2023-10-31T02:51:50;99252.97;;;11.98;100.00
54978;BME280;40873;47.522;19.106;2023-10-31T02:54:17;99255.84;;;11.95;100.00
54978;BME280;40873;47.522;19.106;2023-10-31T02:56:44;99250.88;;;12.01;100.00
54978;BME280;40873;47.522;19.106;2023-10-31T02:59:11;99245.03;;;11.98;100.00
54978;BME280;40873;47.522;19.106;2023-10-31T03:01:38;99250.31;;;11.98;100.00
54978;BME280;40873;47.522;19.106;2023-10-31T03:04:05;99266.69;;;11.92;100.00
54978;BME280;40873;47.522;19.106;2023-10-31T03:06:32;99270.88;;;11.94;100.00
54978;BME280;40873;47.522;19.106;2023-10-31T03:08:59;99256.31;;;12.00;100.00
54978;BME280;40873;47.522;19.106;2023-10-31T03:11:27;99263.88;;;12.04;100.00
54978;BME280;40873;47.522;19.106;2023-10-31T03:13:54;99268.31;;;12.04;100.00
54978;BME280;40873;47.522;19.106;2023-10-31T03:16:22;99262.75;;;12.07;100.00
54978;BME280;40873;47.522;19.106;2023-10-31T03:18:50;99270.81;;;12.05;100.00
54978;BME280;40873;47.522;19.106;2023-10-31T03:21:17;99266.94;;;12.10;100.00
54978;BME280;40873;47.522;19.106;2023-10-31T03:23:51;99275.59;;;12.12;100.00
54978;BME280;40873;47.522;19.106;2023-10-31T03:26:22;99268.44;;;12.23;100.00
54978;BME280;40873;47.522;19.106;2023-10-31T03:28:49;99257.41;;;12.18;100.00
54978;BME280;40873;47.522;19.106;2023-10-31T03:31:16;99259.94;;;12.20;100.00
54978;BME280;40873;47.522;19.106;2023-10-31T03:33:44;99267.72;;;12.21;100.00
54978;BME280;40873;47.522;19.106;2023-10-31T03:36:11;99274.13;;;12.19;100.00
54978;BME280;40873;47.522;19.106;2023-10-31T03:38:38;99291.91;;;12.17;100.00
54978;BME280;40873;47.522;19.106;2023-10-31T03:41:05;99291.66;;;12.20;100.00
54978;BME280;40873;47.522;19.106;2023-10-31T03:43:32;99300.56;;;12.19;100.00
54978;BME280;40873;47.522;19.106;2023-10-31T03:45:59;99310.16;;;12.20;100.00
54978;BME280;40873;47.522;19.106;2023-10-31T03:48:27;99314.34;;;12.22;100.00
54978;BME280;40873;47.522;19.106;2023-10-31T03:50:54;99322.03;;;12.25;100.00
54978;BME280;40873;47.522;19.106;2023-10-31T03:53:24;99326.38;;;12.26;100.00
54978;BME280;40873;47.522;19.106;2023-10-31T03:55:50;99322.47;;;12.30;100.00
54978;BME280;40873;47.522;19.106;2023-10-31T03:58:18;99290.03;;;12.28;100.00
54978;BME280;40873;47.522;19.106;2023-10-31T04:00:44;99289.47;;;12.25;100.00
54978;BME280;40873;47.522;19.106;2023-10-31T04:03:12;99288.03;;;12.21;100.00
54978;BME280;40873;47.522;19.106;2023-10-31T04:05:39;99304.03;;;12.19;100.00
54978;BME280;40873;47.522;19.106;2023-10-31T04:08:06;99301.63;;;12.16;100.00
54978;BME280;40873;47.522;19.106;2023-10-31T04:10:33;99308.09;;;12.23;100.00
54978;BME280;40873;47.522;19.106;2023-10-31T04:13:00;99282.63;;;12.22;100.00
54978;BME280;40873;47.522;19.106;2023-10-31T04:15:27;99266.66;;;12.24;100.00
54978;BME280;40873;47.522;19.106;2023-10-31T04:17:56;99277.09;;;12.25;100.00
54978;BME280;40873;47.522;19.106;2023-10-31T04:20:23;99263.88;;;12.25;100.00
54978;BME280;40873;47.522;19.106;2023-10-31T04:22:50;99273.63;;;12.25;100.00
54978;BME280;40873;47.522;19.106;2023-10-31T04:25:17;99268.00;;;12.18;100.00
54978;BME280;40873;47.522;19.106;2023-10-31T04:27:44;99258.13;;;12.20;100.00
54978;BME280;40873;47.522;19.106;2023-10-31T04:30:11;99250.47;;;12.17;100.00
54978;BME280;40873;47.522;19.106;2023-10-31T04:32:41;99247.91;;;12.16;100.00
54978;BME280;40873;47.522;19.106;2023-10-31T04:35:08;99232.66;;;12.19;100.00
54978;BME280;40873;47.522;19.106;2023-10-31T04:37:35;99227.38;;;12.19;100.00
54978;BME280;40873;47.522;19.106;2023-10-31T04:40:02;99227.94;;;12.23;100.00
54978;BME280;40873;47.522;19.106;2023-10-31T04:42:31;99222.63;;;12.23;100.00
54978;BME280;40873;47.522;19.106;2023-10-31T04:45:00;99235.75;;;12.24;100.00
54978;BME280;40873;47.522;19.106;2023-10-31T04:47:27;99230.19;;;12.27;100.00
54978;BME280;40873;47.522;19.106;2023-10-31T04:49:54;99212.34;;;12.20;100.00
54978;BME280;40873;47.522;19.106;2023-10-31T04:52:21;99214.72;;;12.23;100.00
54978;BME280;40873;47.522;19.106;2023-10-31T04:54:49;99214.97;;;12.20;100.00
54978;BME280;40873;47.522;19.106;2023-10-31T04:57:16;99208.06;;;12.28;100.00
54978;BME280;40873;47.522;19.106;2023-10-31T04:59:43;99203.69;;;12.39;100.00
54978;BME280;40873;47.522;19.106;2023-10-31T05:02:10;99202.25;;;12.34;100.00
54978;BME280;40873;47.522;19.106;2023-10-31T05:04:40;99200.81;;;12.30;100.00
54978;BME280;40873;47.522;19.106;2023-10-31T05:07:08;99190.25;;;12.30;100.00
54978;BME280;40873;47.522;19.106;2023-10-31T05:09:35;99193.63;;;12.32;100.00
54978;BME280;40873;47.522;19.106;2023-10-31T05:12:03;99185.81;;;12.31;100.00
54978;BME280;40873;47.522;19.106;2023-10-31T05:14:30;99186.66;;;12.31;100.00
54978;BME280;40873;47.522;19.106;2023-10-31T05:16:57;99180.09;;;12.26;100.00
54978;BME280;40873;47.522;19.106;2023-10-31T05:19:24;99172.84;;;12.28;100.00
54978;BME280;40873;47.522;19.106;2023-10-31T05:21:51;99174.22;;;12.22;100.00
54978;BME280;40873;47.522;19.106;2023-10-31T05:24:18;99168.22;;;12.20;100.00
54978;BME280;40873;47.522;19.106;2023-10-31T05:26:45;99170.88;;;12.20;100.00
54978;BME280;40873;47.522;19.106;2023-10-31T05:29:12;99184.22;;;12.19;100.00
54978;BME280;40873;47.522;19.106;2023-10-31T05:31:40;99204.41;;;12.20;100.00
54978;BME280;40873;47.522;19.106;2023-10-31T05:34:08;99217.03;;;12.16;100.00
54978;BME280;40873;47.522;19.106;2023-10-31T05:36:35;99235.44;;;12.18;100.00
54978;BME280;40873;47.522;19.106;2023-10-31T05:39:02;99262.72;;;12.18;100.00
54978;BME280;40873;47.522;19.106;2023-10-31T05:41:29;99260.38;;;12.25;100.00
54978;BME280;40873;47.522;19.106;2023-10-31T05:43:57;99263.34;;;12.31;100.00
54978;BME280;40873;47.522;19.106;2023-10-31T05:46:24;99243.06;;;12.42;100.00
54978;BME280;40873;47.522;19.106;2023-10-31T05:48:51;99233.47;;;12.41;100.00
54978;BME280;40873;47.522;19.106;2023-10-31T05:51:19;99224.38;;;12.33;100.00
54978;BME280;40873;47.522;19.106;2023-10-31T05:53:46;99213.22;;;12.30;100.00
54978;BME280;40873;47.522;19.106;2023-10-31T05:56:15;99211.81;;;12.26;100.00
54978;BME280;40873;47.522;19.106;2023-10-31T05:58:43;99202.91;;;12.27;100.00
54978;BME280;40873;47.522;19.106;2023-10-31T06:01:10;99202.91;;;12.27;100.00
54978;BME280;40873;47.522;19.106;2023-10-31T06:03:37;99198.72;;;12.24;100.00
54978;BME280;40873;47.522;19.106;2023-10-31T06:06:05;99204.13;;;12.23;100.00
54978;BME280;40873;47.522;19.106;2023-10-31T06:08:32;99201.09;;;12.27;100.00
54978;BME280;40873;47.522;19.106;2023-10-31T06:11:00;99188.47;;;12.31;100.00
54978;BME280;40873;47.522;19.106;2023-10-31T06:13:27;99171.88;;;12.29;100.00
54978;BME280;40873;47.522;19.106;2023-10-31T06:15:55;99174.66;;;12.27;100.00
54978;BME280;40873;47.522;19.106;2023-10-31T06:18:27;99180.41;;;12.32;100.00
54978;BME280;40873;47.522;19.106;2023-10-31T06:20:54;99215.84;;;12.30;100.00
54978;BME280;40873;47.522;19.106;2023-10-31T06:23:21;99221.56;;;12.25;100.00
54978;BME280;40873;47.522;19.106;2023-10-31T06:25:48;99204.13;;;12.23;100.00
54978;BME280;40873;47.522;19.106;2023-10-31T06:28:16;99208.34;;;12.25;100.00
54978;BME280;40873;47.522;19.106;2023-10-31T06:30:43;99202.56;;;12.41;100.00
54978;BME280;40873;47.522;19.106;2023-10-31T06:33:10;99200.09;;;12.49;100.00
54978;BME280;40873;47.522;19.106;2023-10-31T06:35:37;99204.28;;;12.52;100.00
54978;BME280;40873;47.522;19.106;2023-10-31T06:38:04;99212.81;;;12.65;100.00
54978;BME280;40873;47.522;19.106;2023-10-31T06:40:31;99205.47;;;12.69;100.00
54978;BME280;40873;47.522;19.106;2023-10-31T06:42:59;99205.16;;;12.62;100.00
54978;BME280;40873;47.522;19.106;2023-10-31T06:45:26;99201.09;;;12.58;100.00
54978;BME280;40873;47.522;19.106;2023-10-31T06:47:53;99182.56;;;12.58;100.00
54978;BME280;40873;47.522;19.106;2023-10-31T06:50:21;99191.22;;;12.60;100.00
54978;BME280;40873;47.522;19.106;2023-10-31T06:52:48;99205.00;;;12.54;100.00
54978;BME280;40873;47.522;19.106;2023-10-31T06:55:15;99215.56;;;12.54;100.00
54978;BME280;40873;47.522;19.106;2023-10-31T06:57:42;99207.50;;;12.55;100.00
54978;BME280;40873;47.522;19.106;2023-10-31T07:00:11;99215.28;;;12.57;100.00
54978;BME280;40873;47.522;19.106;2023-10-31T07:02:38;99216.03;;;12.59;100.00
54978;BME280;40873;47.522;19.106;2023-10-31T07:05:07;99222.72;;;12.63;100.00
54978;BME280;40873;47.522;19.106;2023-10-31T07:07:35;99233.97;;;12.65;100.00
54978;BME280;40873;47.522;19.106;2023-10-31T07:10:03;99216.34;;;12.66;100.00
54978;BME280;40873;47.522;19.106;2023-10-31T07:12:30;99207.97;;;12.70;100.00
54978;BME280;40873;47.522;19.106;2023-10-31T07:14:57;99201.16;;;12.77;100.00
54978;BME280;40873;47.522;19.106;2023-10-31T07:17:27;99203.97;;;12.85;100.00
54978;BME280;40873;47.522;19.106;2023-10-31T07:19:54;99204.16;;;12.94;100.00
54978;BME280;40873;47.522;19.106;2023-10-31T07:22:21;99197.34;;;13.01;100.00
54978;BME280;40873;47.522;19.106;2023-10-31T07:24:52;99205.69;;;13.06;100.00
54978;BME280;40873;47.522;19.106;2023-10-31T07:27:19;99200.84;;;13.11;100.00
54978;BME280;40873;47.522;19.106;2023-10-31T07:29:47;99190.28;;;13.21;100.00
54978;BME280;40873;47.522;19.106;2023-10-31T07:32:13;99194.94;;;13.28;100.00
54978;BME280;40873;47.522;19.106;2023-10-31T07:34:41;99196.03;;;13.35;100.00
54978;BME280;40873;47.522;19.106;2023-10-31T07:37:09;99204.25;;;13.42;100.00
54978;BME280;40873;47.522;19.106;2023-10-31T07:39:36;99194.22;;;13.46;100.00
54978;BME280;40873;47.522;19.106;2023-10-31T07:42:03;99192.69;;;13.53;100.00
54978;BME280;40873;47.522;19.106;2023-10-31T07:44:30;99181.69;;;13.57;100.00
54978;BME280;40873;47.522;19.106;2023-10-31T07:46:57;99188.81;;;13.57;100.00
54978;BME280;40873;47.522;19.106;2023-10-31T07:49:24;99188.94;;;13.65;100.00
54978;BME280;40873;47.522;19.106;2023-10-31T07:51:51;99195.78;;;13.77;100.00
54978;BME280;40873;47.522;19.106;2023-10-31T07:54:18;99191.69;;;13.83;100.00
54978;BME280;40873;47.522;19.106;2023-10-31T07:56:46;99183.03;;;13.90;100.00
54978;BME280;40873;47.522;19.106;2023-10-31T07:59:16;99183.56;;;14.04;100.00
54978;BME280;40873;47.522;19.106;2023-10-31T08:01:43;99182.41;;;14.25;100.00
54978;BME280;40873;47.522;19.106;2023-10-31T08:04:10;99178.25;;;14.60;100.00
54978;BME280;40873;47.522;19.106;2023-10-31T08:06:37;99179.88;;;14.71;100.00
54978;BME280;40873;47.522;19.106;2023-10-31T08:09:04;99183.78;;;14.76;100.00
54978;BME280;40873;47.522;19.106;2023-10-31T08:11:34;99180.19;;;14.95;100.00
54978;BME280;40873;47.522;19.106;2023-10-31T08:14:02;99185.66;;;15.29;100.00
54978;BME280;40873;47.522;19.106;2023-10-31T08:16:29;99192.66;;;15.48;100.00
54978;BME280;40873;47.522;19.106;2023-10-31T08:18:56;99200.22;;;15.71;100.00
54978;BME280;40873;47.522;19.106;2023-10-31T08:21:23;99197.19;;;15.66;100.00
54978;BME280;40873;47.522;19.106;2023-10-31T08:23:50;99187.69;;;15.63;100.00
54978;BME280;40873;47.522;19.106;2023-10-31T08:26:18;99192.28;;;15.61;100.00
54978;BME280;40873;47.522;19.106;2023-10-31T08:28:46;99183.09;;;15.55;100.00
54978;BME280;40873;47.522;19.106;2023-10-31T08:31:13;99189.06;;;15.67;100.00
54978;BME280;40873;47.522;19.106;2023-10-31T08:33:40;99192.72;;;15.66;100.00
54978;BME280;40873;47.522;19.106;2023-10-31T08:36:07;99197.41;;;15.72;100.00
54978;BME280;40873;47.522;19.106;2023-10-31T08:38:34;99191.56;;;15.86;100.00
54978;BME280;40873;47.522;19.106;2023-10-31T08:41:01;99177.88;;;15.81;100.00
54978;BME280;40873;47.522;19.106;2023-10-31T08:43:28;99176.66;;;15.76;100.00
54978;BME280;40873;47.522;19.106;2023-10-31T08:45:56;99166.25;;;15.82;100.00
54978;BME280;40873;47.522;19.106;2023-10-31T08:48:23;99156.66;;;15.89;100.00
54978;BME280;40873;47.522;19.106;2023-10-31T08:50:50;99156.63;;;16.07;100.00
54978;BME280;40873;47.522;19.106;2023-10-31T08:53:17;99161.78;;;16.09;100.00
54978;BME280;40873;47.522;19.106;2023-10-31T08:55:46;99165.78;;;16.13;100.00
54978;BME280;40873;47.522;19.106;2023-10-31T08:58:13;99160.44;;;16.13;100.00
54978;BME280;40873;47.522;19.106;2023-10-31T09:00:41;99167.47;;;16.14;100.00
54978;BME280;40873;47.522;19.106;2023-10-31T09:03:09;99149.06;;;16.21;100.00
54978;BME280;40873;47.522;19.106;2023-10-31T09:05:36;99148.09;;;16.30;100.00
54978;BME280;40873;47.522;19.106;2023-10-31T09:08:04;99141.81;;;16.39;100.00
54978;BME280;40873;47.522;19.106;2023-10-31T09:10:33;99143.84;;;16.45;100.00
54978;BME280;40873;47.522;19.106;2023-10-31T09:13:00;99144.38;;;16.49;100.00
54978;BME280;40873;47.522;19.106;2023-10-31T09:15:27;99144.91;;;16.60;100.00
54978;BME280;40873;47.522;19.106;2023-10-31T09:17:54;99144.00;;;16.69;100.00
54978;BME280;40873;47.522;19.106;2023-10-31T09:20:21;99141.38;;;16.94;100.00
54978;BME280;40873;47.522;19.106;2023-10-31T09:22:48;99125.78;;;17.15;100.00
54978;BME280;40873;47.522;19.106;2023-10-31T09:25:15;99124.47;;;17.19;100.00
54978;BME280;40873;47.522;19.106;2023-10-31T09:27:42;99124.47;;;17.19;100.00
54978;BME280;40873;47.522;19.106;2023-10-31T09:30:09;99125.13;;;17.30;100.00
54978;BME280;40873;47.522;19.106;2023-10-31T09:32:37;99122.16;;;17.33;100.00
54978;BME280;40873;47.522;19.106;2023-10-31T09:35:04;99103.81;;;17.30;100.00
54978;BME280;40873;47.522;19.106;2023-10-31T09:37:32;99095.31;;;17.34;100.00
54978;BME280;40873;47.522;19.106;2023-10-31T09:39:59;99096.13;;;17.43;100.00
54978;BME280;40873;47.522;19.106;2023-10-31T09:42:26;99098.16;;;17.41;100.00
54978;BME280;40873;47.522;19.106;2023-10-31T09:44:53;99092.00;;;17.40;100.00
54978;BME280;40873;47.522;19.106;2023-10-31T09:47:22;99104.31;;;17.41;100.00
54978;BME280;40873;47.522;19.106;2023-10-31T09:49:49;99107.16;;;17.48;98.65
54978;BME280;40873;47.522;19.106;2023-10-31T09:52:17;99104.81;;;17.53;98.83
54978;BME280;40873;47.522;19.106;2023-10-31T09:54:44;99098.13;;;17.57;99.33
54978;BME280;40873;47.522;19.106;2023-10-31T09:57:14;99098.13;;;17.65;97.41
54978;BME280;40873;47.522;19.106;2023-10-31T09:59:41;99082.63;;;17.69;98.68
54978;BME280;40873;47.522;19.106;2023-10-31T10:02:08;99078.31;;;17.76;96.55
54978;BME280;40873;47.522;19.106;2023-10-31T10:04:37;99067.31;;;17.87;94.83
54978;BME280;40873;47.522;19.106;2023-10-31T10:07:05;99061.97;;;17.87;96.55
54978;BME280;40873;47.522;19.106;2023-10-31T10:09:32;99049.94;;;17.91;97.35
54978;BME280;40873;47.522;19.106;2023-10-31T10:12:00;99030.22;;;18.08;95.79
54978;BME280;40873;47.522;19.106;2023-10-31T10:14:28;99030.03;;;18.10;93.54
54978;BME280;40873;47.522;19.106;2023-10-31T10:16:55;99033.72;;;18.09;93.26
54978;BME280;40873;47.522;19.106;2023-10-31T10:19:24;99015.38;;;18.06;92.32
54978;BME280;40873;47.522;19.106;2023-10-31T10:21:57;99007.91;;;18.01;92.08
54978;BME280;40873;47.522;19.106;2023-10-31T10:24:25;99021.22;;;18.01;91.58
54978;BME280;40873;47.522;19.106;2023-10-31T10:26:52;99000.31;;;18.13;91.16
54978;BME280;40873;47.522;19.106;2023-10-31T10:29:19;99004.31;;;18.17;96.23
54978;BME280;40873;47.522;19.106;2023-10-31T10:31:47;98989.44;;;18.23;87.62
54978;BME280;40873;47.522;19.106;2023-10-31T10:34:15;98984.72;;;18.33;89.00
54978;BME280;40873;47.522;19.106;2023-10-31T10:36:48;98966.34;;;18.38;86.74
54978;BME280;40873;47.522;19.106;2023-10-31T10:39:21;98965.44;;;18.46;86.70
54978;BME280;40873;47.522;19.106;2023-10-31T10:41:55;98952.81;;;18.62;84.85
54978;BME280;40873;47.522;19.106;2023-10-31T10:44:32;98951.63;;;18.65;81.77
54978;BME280;40873;47.522;19.106;2023-10-31T10:47:03;98949.78;;;18.66;81.11
54978;BME280;40873;47.522;19.106;2023-10-31T10:49:36;98952.53;;;18.80;80.10
54978;BME280;40873;47.522;19.106;2023-10-31T10:52:21;98951.34;;;18.83;83.29
54978;BME280;40873;47.522;19.106;2023-10-31T10:55:04;98953.84;;;18.84;79.49
54978;BME280;40873;47.522;19.106;2023-10-31T11:00:13;98930.31;;;19.03;80.31
54978;BME280;40873;47.522;19.106;2023-10-31T11:02:43;98921.94;;;19.06;81.28
54978;BME280;40873;47.522;19.106;2023-10-31T11:05:10;98916.22;;;19.09;79.81
54978;BME280;40873;47.522;19.106;2023-10-31T11:07:38;98906.94;;;19.20;78.71
54978;BME280;40873;47.522;19.106;2023-10-31T11:10:05;98896.06;;;19.21;78.04
54978;BME280;40873;47.522;19.106;2023-10-31T11:12:33;98888.13;;;19.42;76.88
54978;BME280;40873;47.522;19.106;2023-10-31T11:15:01;98878.34;;;19.50;75.54
54978;BME280;40873;47.522;19.106;2023-10-31T11:17:32;98867.38;;;19.44;83.56
54978;BME280;40873;47.522;19.106;2023-10-31T11:20:01;98871.69;;;19.31;77.98
54978;BME280;40873;47.522;19.106;2023-10-31T11:22:39;98870.50;;;19.18;74.61
54978;BME280;40873;47.522;19.106;2023-10-31T11:25:08;98876.50;;;19.06;79.77
54978;BME280;40873;47.522;19.106;2023-10-31T11:27:46;98853.78;;;18.87;80.00
54978;BME280;40873;47.522;19.106;2023-10-31T11:30:26;98862.44;;;18.74;86.90
54978;BME280;40873;47.522;19.106;2023-10-31T11:32:55;98864.53;;;18.56;83.55
54978;BME280;40873;47.522;19.106;2023-10-31T11:35:22;98863.38;;;18.58;81.00
54978;BME280;40873;47.522;19.106;2023-10-31T11:38:06;98872.69;;;18.40;83.47
54978;BME280;40873;47.522;19.106;2023-10-31T11:40:35;98855.34;;;18.35;84.85
54978;BME280;40873;47.522;19.106;2023-10-31T11:43:06;98839.84;;;18.16;91.17
54978;BME280;40873;47.522;19.106;2023-10-31T11:45:40;98807.91;;;18.00;98.11
54978;BME280;40873;47.522;19.106;2023-10-31T11:48:09;98809.50;;;17.86;100.00
54978;BME280;40873;47.522;19.106;2023-10-31T11:50:37;98825.75;;;17.76;100.00
54978;BME280;40873;47.522;19.106;2023-10-31T11:53:06;98828.28;;;17.62;100.00
54978;BME280;40873;47.522;19.106;2023-10-31T11:55:41;98830.38;;;17.43;100.00
54978;BME280;40873;47.522;19.106;2023-10-31T11:58:24;98828.47;;;17.21;100.00
54978;BME280;40873;47.522;19.106;2023-10-31T12:01:04;98831.63;;;17.16;100.00
54978;BME280;40873;47.522;19.106;2023-10-31T12:03:41;98824.03;;;17.05;100.00
54978;BME280;40873;47.522;19.106;2023-10-31T12:06:10;98795.75;;;16.88;100.00
54978;BME280;40873;47.522;19.106;2023-10-31T12:08:40;98827.56;;;16.81;100.00
54978;BME280;40873;47.522;19.106;2023-10-31T12:11:15;98811.22;;;16.68;100.00
54978;BME280;40873;47.522;19.106;2023-10-31T12:14:00;98786.63;;;16.66;100.00
54978;BME280;40873;47.522;19.106;2023-10-31T12:16:30;98778.31;;;16.53;100.00
54978;BME280;40873;47.522;19.106;2023-10-31T12:21:45;98774.50;;;16.39;100.00
54978;BME280;40873;47.522;19.106;2023-10-31T12:24:18;98799.13;;;16.33;100.00
54978;BME280;40873;47.522;19.106;2023-10-31T12:26:45;98843.34;;;16.17;100.00
54978;BME280;40873;47.522;19.106;2023-10-31T12:29:18;98920.84;;;16.06;100.00
54978;BME280;40873;47.522;19.106;2023-10-31T12:31:50;99089.06;;;15.74;100.00
54978;BME280;40873;47.522;19.106;2023-10-31T12:34:22;99132.47;;;15.39;100.00
54978;BME280;40873;47.522;19.106;2023-10-31T12:36:53;99113.56;;;15.06;100.00
54978;BME280;40873;47.522;19.106;2023-10-31T12:39:22;99118.31;;;14.85;100.00
54978;BME280;40873;47.522;19.106;2023-10-31T12:41:50;99102.16;;;14.51;100.00
54978;BME280;40873;47.522;19.106;2023-10-31T12:44:23;99103.38;;;14.29;100.00
54978;BME280;40873;47.522;19.106;2023-10-31T12:46:51;99096.28;;;14.20;100.00
54978;BME280;40873;47.522;19.106;2023-10-31T12:49:20;99079.66;;;14.18;100.00
54978;BME280;40873;47.522;19.106;2023-10-31T12:51:59;99067.13;;;14.10;100.00